Time;durP1;ratioP1;P1;durP2;ratioP2;P2;SDS_P1;SDS_P2;PMS_P1;PMS_P2;Temp;Humidity;BMP_temperature;BMP_pressure;BME280_temperature;BME280_humidity;BME280_pressure;Samples;Min_cycle;Max_cycle;Signal;HPM_P1;HPM_P2
2023/01/22 01:09:31;;;;;;;9.32;5.40;;;5.80;75.40;;;;;;6309570;22;20031;-87
2023/01/22 01:11:57;;;;;;;9.50;6.00;;;5.80;75.40;;;;;;6310748;22;20007;-86
2023/01/22 01:14:23;;;;;;;11.32;6.18;;;5.80;75.00;;;;;;6308795;22;20094;-87
2023/01/22 01:16:49;;;;;;;9.38;6.15;;;5.80;75.30;;;;;;6280907;22;20104;-86
2023/01/22 01:19:21;;;;;;;9.38;6.25;;;5.70;75.40;;;;;;6308361;22;20007;-87
2023/01/22 01:21:47;;;;;;;11.20;6.47;;;5.80;75.80;;;;;;6308801;22;20066;-86
2023/01/22 01:24:13;;;;;;;10.57;6.50;;;5.70;75.90;;;;;;6312390;22;19999;-86
2023/01/22 01:26:40;;;;;;;9.80;6.35;;;5.70;76.20;;;;;;6280755;22;20504;-86
2023/01/22 01:29:08;;;;;;;10.80;6.20;;;5.70;75.80;;;;;;6308257;22;20337;-86
2023/01/22 01:31:35;;;;;;;10.50;7.55;;;5.70;76.00;;;;;;6307773;22;20444;-86
2023/01/22 01:34:02;;;;;;;11.20;6.40;;;5.70;75.80;;;;;;6307853;22;20003;-88
2023/01/22 01:36:28;;;;;;;9.90;6.60;;;5.70;75.80;;;;;;6309028;22;20538;-85
2023/01/22 01:38:55;;;;;;;9.15;6.03;;;5.70;76.40;;;;;;6307624;22;20004;-86
2023/01/22 01:41:25;;;;;;;9.68;6.72;;;5.70;76.30;;;;;;6309005;22;20084;-87
2023/01/22 01:44:10;;;;;;;9.57;6.47;;;5.70;76.10;;;;;;6308636;22;19995;-86
2023/01/22 01:46:41;;;;;;;11.02;6.20;;;5.60;76.10;;;;;;6281532;22;20067;-87
2023/01/22 01:49:24;;;;;;;9.93;6.15;;;5.60;76.10;;;;;;6281220;22;20326;-87
2023/01/22 01:51:53;;;;;;;10.18;6.50;;;5.50;76.70;;;;;;6283148;22;20095;-87
2023/01/22 01:54:19;;;;;;;9.88;6.20;;;5.50;76.50;;;;;;6320819;22;19995;-87
2023/01/22 01:56:49;;;;;;;14.70;7.93;;;5.40;76.50;;;;;;6314421;22;20052;-86
2023/01/22 01:59:18;;;;;;;9.93;6.75;;;5.40;76.60;;;;;;6307876;22;20011;-86
2023/01/22 02:01:50;;;;;;;10.82;6.40;;;5.40;77.10;;;;;;6308249;22;20325;-86
2023/01/22 02:04:15;;;;;;;12.63;6.82;;;5.40;76.70;;;;;;6307946;22;20406;-87
2023/01/22 02:06:41;;;;;;;9.93;6.53;;;5.40;76.70;;;;;;6308260;22;20057;-86
2023/01/22 02:09:07;;;;;;;11.10;6.97;;;5.40;76.80;;;;;;6307686;22;20069;-85
2023/01/22 02:11:33;;;;;;;10.02;6.97;;;5.50;76.80;;;;;;6308833;22;20003;-86
2023/01/22 02:14:06;;;;;;;10.05;6.93;;;5.60;76.90;;;;;;6310048;22;19992;-86
2023/01/22 02:16:31;;;;;;;11.25;6.88;;;5.60;76.50;;;;;;6309179;22;19999;-85
2023/01/22 02:18:57;;;;;;;12.38;8.25;;;5.60;76.60;;;;;;6308835;22;20448;-86
2023/01/22 02:21:30;;;;;;;11.10;6.63;;;5.60;76.50;;;;;;6284484;22;19999;-86
2023/01/22 02:23:56;;;;;;;11.10;7.00;;;5.60;76.40;;;;;;6313168;22;20006;-87
2023/01/22 02:26:21;;;;;;;11.90;7.32;;;5.60;77.50;;;;;;6291655;22;20007;-86
2023/01/22 02:28:47;;;;;;;9.50;7.05;;;5.60;76.90;;;;;;6311607;22;20341;-86
2023/01/22 02:31:13;;;;;;;10.20;6.78;;;5.50;76.90;;;;;;6287708;22;20035;-87
2023/01/22 02:33:39;;;;;;;10.77;7.03;;;5.40;77.00;;;;;;6323465;22;20007;-86
2023/01/22 02:36:05;;;;;;;10.57;6.78;;;5.40;77.40;;;;;;6323794;22;20000;-88
2023/01/22 02:38:31;;;;;;;11.35;7.10;;;5.30;77.50;;;;;;6288260;22;20392;-89
2023/01/22 02:40:57;;;;;;;11.20;7.45;;;5.30;77.60;;;;;;6308686;22;20007;-86
2023/01/22 02:43:23;;;;;;;10.70;7.07;;;5.30;77.70;;;;;;6312710;22;19995;-87
2023/01/22 02:45:49;;;;;;;13.45;9.30;;;5.30;77.80;;;;;;6312670;22;20358;-87
2023/01/22 02:48:15;;;;;;;9.90;6.82;;;5.30;77.80;;;;;;6308197;22;20376;-87
2023/01/22 02:50:41;;;;;;;12.52;8.85;;;5.30;77.80;;;;;;6282931;22;20437;-88
2023/01/22 02:53:06;;;;;;;10.10;7.22;;;5.30;78.10;;;;;;6309141;22;20060;-86
2023/01/22 02:55:32;;;;;;;12.25;7.63;;;5.20;78.00;;;;;;6312422;22;20067;-87
2023/01/22 02:57:58;;;;;;;10.05;7.22;;;5.20;78.20;;;;;;6311797;22;19999;-88
2023/01/22 03:00:24;;;;;;;12.68;7.72;;;5.10;77.50;;;;;;6311756;22;20397;-87
2023/01/22 03:02:49;;;;;;;17.58;9.63;;;5.10;78.10;;;;;;6311961;22;19999;-88
2023/01/22 03:05:15;;;;;;;9.63;6.63;;;5.10;78.10;;;;;;6313023;22;20286;-87
2023/01/22 03:07:43;;;;;;;14.10;9.10;;;5.00;78.20;;;;;;6313259;22;20007;-87
2023/01/22 03:10:19;;;;;;;10.27;7.60;;;5.00;78.60;;;;;;6313793;22;20012;-87
2023/01/22 03:21:15;;;;;;;13.70;8.18;;;5.00;79.10;;;;;;6334070;22;20030;-87
2023/01/22 03:23:44;;;;;;;11.38;7.45;;;5.00;78.80;;;;;;6320998;22;20003;-86
2023/01/22 03:26:10;;;;;;;14.55;9.32;;;5.00;79.00;;;;;;6287907;22;20443;-85
2023/01/22 03:28:38;;;;;;;11.10;7.68;;;5.00;79.00;;;;;;6312722;22;20081;-87
2023/01/22 03:31:04;;;;;;;12.63;8.93;;;5.00;78.60;;;;;;6309576;22;20022;-87
2023/01/22 03:33:31;;;;;;;11.82;7.25;;;5.00;78.40;;;;;;6309831;22;19999;-86
2023/01/22 03:36:05;;;;;;;13.13;9.32;;;4.90;78.80;;;;;;6310636;22;20002;-86
2023/01/22 03:38:31;;;;;;;10.30;7.35;;;4.90;79.00;;;;;;6311980;22;20044;-86
2023/01/22 03:41:04;;;;;;;13.02;8.93;;;4.90;78.80;;;;;;6312336;22;20003;-86
2023/01/22 03:43:31;;;;;;;12.55;8.00;;;4.90;79.70;;;;;;6313415;22;20025;-86
2023/01/22 03:46:15;;;;;;;14.95;9.32;;;4.80;79.00;;;;;;6310600;22;20007;-85
2023/01/22 03:48:41;;;;;;;9.80;6.70;;;4.90;79.40;;;;;;6316270;22;20003;-86
2023/01/22 03:51:17;;;;;;;12.65;9.07;;;4.80;79.50;;;;;;6310953;22;20045;-85
2023/01/22 03:53:43;;;;;;;15.50;7.60;;;4.80;79.20;;;;;;6281827;22;20018;-87
2023/01/22 03:56:20;;;;;;;12.82;9.30;;;4.90;79.70;;;;;;6309682;22;19995;-87
2023/01/22 03:58:46;;;;;;;12.50;7.38;;;4.90;79.50;;;;;;6309227;22;20083;-86
2023/01/22 04:01:15;;;;;;;14.27;9.07;;;4.90;79.30;;;;;;6307957;22;20003;-88
2023/01/22 04:03:41;;;;;;;10.32;7.03;;;4.90;79.50;;;;;;6309060;22;20433;-87
2023/01/22 04:06:09;;;;;;;11.60;9.32;;;4.90;79.10;;;;;;6318242;22;20045;-88
2023/01/22 04:08:37;;;;;;;13.85;9.68;;;5.00;79.30;;;;;;6308659;22;20039;-87
2023/01/22 04:11:04;;;;;;;10.57;7.65;;;5.10;79.60;;;;;;6308772;22;20009;-87
2023/01/22 04:13:31;;;;;;;14.70;9.40;;;5.10;79.30;;;;;;6308818;22;20014;-87
2023/01/22 04:15:57;;;;;;;13.80;9.75;;;5.10;80.30;;;;;;6308000;22;20488;-87
2023/01/22 04:18:23;;;;;;;11.45;7.68;;;5.10;79.40;;;;;;6308421;22;19999;-87
2023/01/22 04:20:49;;;;;;;13.50;9.70;;;5.20;80.00;;;;;;6281815;22;20019;-87
2023/01/22 04:23:15;;;;;;;10.18;6.95;;;5.20;79.80;;;;;;6308370;22;20023;-86
2023/01/22 04:25:42;;;;;;;9.77;6.97;;;5.20;79.70;;;;;;6307926;22;20003;-88
2023/01/22 04:28:09;;;;;;;9.55;7.10;;;5.10;79.40;;;;;;6307826;22;20382;-86
2023/01/22 04:30:36;;;;;;;12.52;9.35;;;5.20;79.70;;;;;;6280370;22;20137;-88
2023/01/22 04:33:02;;;;;;;9.98;6.93;;;5.30;79.40;;;;;;6307623;22;20017;-86
2023/01/22 04:35:28;;;;;;;14.50;9.48;;;5.30;79.10;;;;;;6308140;22;20066;-88
2023/01/22 04:37:55;;;;;;;9.85;7.03;;;5.30;79.60;;;;;;6301333;22;20050;-87
2023/01/22 04:40:20;;;;;;;9.90;7.03;;;5.20;79.00;;;;;;6282748;22;20017;-85
2023/01/22 04:42:46;;;;;;;13.65;9.13;;;5.30;79.50;;;;;;6287464;22;20012;-85
2023/01/22 04:45:12;;;;;;;10.13;6.85;;;5.30;79.60;;;;;;6289568;22;20007;-87
2023/01/22 04:47:43;;;;;;;13.23;9.23;;;5.20;79.30;;;;;;6290417;22;19995;-86
2023/01/22 04:50:14;;;;;;;10.30;7.10;;;5.10;79.60;;;;;;6296152;22;20000;-86
2023/01/22 04:52:40;;;;;;;8.95;6.55;;;5.10;79.40;;;;;;6286840;22;20008;-88
2023/01/22 04:55:07;;;;;;;11.88;9.02;;;5.10;79.50;;;;;;6293071;22;20066;-87
2023/01/22 04:57:33;;;;;;;9.95;6.65;;;5.00;79.80;;;;;;6294387;22;20074;-88
2023/01/22 04:59:58;;;;;;;14.88;9.25;;;5.00;79.70;;;;;;6280839;22;20019;-88
2023/01/22 05:02:24;;;;;;;11.32;7.55;;;5.00;80.10;;;;;;6276306;22;20000;-86
2023/01/22 05:04:50;;;;;;;10.50;7.55;;;4.90;80.10;;;;;;6277342;22;20000;-88
2023/01/22 05:07:15;;;;;;;11.65;7.47;;;5.00;80.40;;;;;;6276575;22;20003;-86
2023/01/22 05:09:41;;;;;;;12.90;9.15;;;4.90;79.80;;;;;;6277178;22;20011;-87
2023/01/22 05:12:07;;;;;;;11.25;7.85;;;4.90;79.80;;;;;;6276845;22;20003;-86
2023/01/22 05:14:32;;;;;;;14.60;9.68;;;4.80;80.20;;;;;;6276647;22;20460;-86
2023/01/22 05:16:58;;;;;;;10.18;7.50;;;4.80;80.30;;;;;;6277112;22;20003;-85
2023/01/22 05:19:23;;;;;;;10.57;7.47;;;4.80;80.00;;;;;;6277191;22;20087;-88
2023/01/22 05:21:49;;;;;;;13.70;7.55;;;4.80;80.30;;;;;;6279988;22;20484;-86
2023/01/22 05:24:17;;;;;;;10.20;7.03;;;4.80;80.20;;;;;;6277303;22;20400;-86
2023/01/22 05:26:43;;;;;;;15.27;9.80;;;4.80;80.40;;;;;;6276941;22;20024;-86
2023/01/22 05:29:09;;;;;;;11.02;7.57;;;4.90;80.50;;;;;;6276613;22;20003;-86
2023/01/22 05:31:34;;;;;;;14.52;9.30;;;4.80;80.30;;;;;;6276622;22;20000;-86
2023/01/22 05:34:00;;;;;;;11.73;8.05;;;4.80;80.70;;;;;;6276808;22;20023;-86
2023/01/22 05:36:26;;;;;;;14.02;9.73;;;4.70;80.60;;;;;;6276898;22;20003;-86
2023/01/22 05:38:52;;;;;;;13.80;9.63;;;4.80;80.40;;;;;;6275999;22;20094;-87
2023/01/22 05:41:18;;;;;;;10.55;7.70;;;4.80;80.50;;;;;;6277265;22;20074;-86
2023/01/22 05:43:43;;;;;;;15.05;9.75;;;4.80;80.70;;;;;;6280895;22;20016;-86
2023/01/22 05:46:09;;;;;;;13.65;9.57;;;4.80;80.90;;;;;;6284509;22;20015;-86
2023/01/22 05:48:35;;;;;;;11.48;8.13;;;4.80;80.50;;;;;;6281784;22;20015;-87
2023/01/22 05:51:05;;;;;;;12.70;8.57;;;4.70;80.50;;;;;;6285771;22;20007;-87
2023/01/22 05:53:32;;;;;;;12.43;9.25;;;4.70;80.70;;;;;;6298441;22;19996;-84
2023/01/22 05:56:02;;;;;;;11.48;7.30;;;4.80;80.80;;;;;;6298319;22;19999;-86
2023/01/22 05:58:32;;;;;;;13.02;9.32;;;4.80;80.60;;;;;;6285810;22;20057;-86
2023/01/22 06:00:58;;;;;;;14.80;7.72;;;4.80;80.60;;;;;;6276598;22;20012;-86
2023/01/22 06:03:24;;;;;;;13.45;9.27;;;4.90;80.80;;;;;;6276694;22;20095;-85
2023/01/22 06:06:00;;;;;;;9.95;7.78;;;4.90;80.40;;;;;;6277433;22;20137;-86
2023/01/22 06:08:26;;;;;;;11.18;7.15;;;5.00;80.40;;;;;;6276863;22;20011;-86
2023/01/22 06:11:03;;;;;;;12.43;9.20;;;5.00;80.20;;;;;;6276823;22;19999;-87
2023/01/22 06:13:30;;;;;;;10.07;6.90;;;5.10;80.10;;;;;;6276356;22;19996;-86
2023/01/22 06:15:56;;;;;;;9.63;7.00;;;5.00;80.00;;;;;;6277333;22;19999;-87
2023/01/22 06:18:23;;;;;;;10.77;7.28;;;5.00;79.90;;;;;;6278154;22;20034;-85
2023/01/22 06:20:48;;;;;;;15.60;9.15;;;5.00;80.20;;;;;;6249293;22;20011;-85
2023/01/22 06:23:14;;;;;;;10.48;7.80;;;5.00;80.30;;;;;;6276410;22;20022;-85
2023/01/22 06:25:40;;;;;;;13.05;8.48;;;4.90;80.00;;;;;;6279336;22;20349;-86
2023/01/22 06:28:06;;;;;;;9.88;6.93;;;4.90;80.30;;;;;;6278969;22;20393;-86
2023/01/22 06:30:32;;;;;;;11.73;8.73;;;4.90;80.40;;;;;;6277587;22;20003;-86
2023/01/22 06:32:57;;;;;;;9.60;6.93;;;4.90;80.70;;;;;;6277802;22;20299;-87
2023/01/22 06:35:23;;;;;;;11.45;8.40;;;4.90;80.40;;;;;;6278116;22;20428;-86
2023/01/22 06:37:50;;;;;;;10.32;6.80;;;4.90;80.20;;;;;;6277871;22;20087;-85
2023/01/22 06:40:16;;;;;;;10.23;6.70;;;4.90;80.20;;;;;;6278031;22;20008;-86
2023/01/22 06:42:42;;;;;;;9.48;6.28;;;5.00;80.70;;;;;;6278019;22;20049;-87
2023/01/22 06:45:08;;;;;;;12.18;8.30;;;5.00;80.50;;;;;;6278270;22;20031;-87
2023/01/22 06:47:34;;;;;;;10.35;7.13;;;5.10;80.50;;;;;;6277684;22;20053;-87
2023/01/22 06:49:59;;;;;;;12.52;8.15;;;5.10;80.10;;;;;;6278281;22;20004;-85
2023/01/22 06:52:25;;;;;;;11.07;7.63;;;5.10;80.10;;;;;;6277836;22;19996;-87
2023/01/22 06:54:51;;;;;;;10.90;7.28;;;5.10;80.20;;;;;;6278562;22;20109;-86
2023/01/22 06:57:16;;;;;;;12.77;8.55;;;5.10;80.20;;;;;;6279668;22;20000;-85
2023/01/22 06:59:42;;;;;;;11.65;7.80;;;5.10;80.00;;;;;;6280459;22;20018;-87
2023/01/22 07:02:16;;;;;;;12.68;8.48;;;5.20;80.40;;;;;;6280785;22;20003;-86
2023/01/22 07:04:42;;;;;;;9.63;7.20;;;5.20;81.00;;;;;;6286253;22;20015;-86
2023/01/22 07:07:08;;;;;;;13.35;8.65;;;5.20;80.30;;;;;;6285110;22;19999;-85
2023/01/22 07:09:34;;;;;;;11.00;7.57;;;5.20;80.30;;;;;;6286969;22;20007;-86
2023/01/22 07:12:00;;;;;;;11.15;7.65;;;5.10;80.10;;;;;;6278135;22;20000;-88
2023/01/22 07:14:27;;;;;;;10.98;7.43;;;5.20;80.30;;;;;;6277850;22;19996;-86
2023/01/22 07:16:54;;;;;;;12.43;8.82;;;5.20;80.10;;;;;;6278305;22;20070;-87
2023/01/22 07:19:20;;;;;;;10.38;7.45;;;5.30;80.30;;;;;;6251281;22;20020;-87
2023/01/22 07:21:45;;;;;;;9.18;6.57;;;5.30;80.30;;;;;;6279138;22;20328;-87
2023/01/22 07:24:11;;;;;;;12.13;8.10;;;5.30;79.90;;;;;;6280094;22;19996;-87
2023/01/22 07:26:37;;;;;;;13.60;9.45;;;5.30;80.10;;;;;;6289623;22;20004;-86
2023/01/22 07:29:04;;;;;;;11.05;7.20;;;5.30;80.10;;;;;;6286070;22;20000;-86
2023/01/22 07:31:30;;;;;;;9.07;6.60;;;5.30;79.90;;;;;;6281425;22;20000;-88
2023/01/22 07:33:56;;;;;;;12.32;7.53;;;5.30;79.90;;;;;;6279407;22;20000;-87
2023/01/22 07:36:22;;;;;;;11.18;8.00;;;5.20;80.20;;;;;;6280051;22;20008;-87
2023/01/22 07:38:48;;;;;;;11.90;7.00;;;5.20;79.80;;;;;;6280931;22;20022;-87
2023/01/22 07:41:14;;;;;;;10.73;7.35;;;5.20;80.10;;;;;;6279608;22;20016;-87
2023/01/22 07:43:39;;;;;;;13.15;7.47;;;5.20;79.90;;;;;;6278048;22;20078;-88
2023/01/22 07:46:06;;;;;;;9.45;7.13;;;5.20;80.00;;;;;;6278308;22;20000;-88
2023/01/22 07:48:32;;;;;;;11.00;7.53;;;5.20;80.20;;;;;;6278495;22;20003;-87
2023/01/22 07:51:02;;;;;;;10.80;7.22;;;5.30;79.80;;;;;;6278008;22;19996;-88
2023/01/22 07:53:28;;;;;;;9.93;7.18;;;5.30;79.60;;;;;;6278044;22;20014;-89
2023/01/22 07:55:54;;;;;;;13.23;9.20;;;5.50;79.90;;;;;;6276404;22;20449;-86
2023/01/22 07:58:20;;;;;;;12.48;7.72;;;5.60;79.90;;;;;;6278783;22;20069;-88
2023/01/22 08:00:45;;;;;;;10.73;7.55;;;5.60;79.60;;;;;;6277905;22;20083;-87
2023/01/22 08:03:13;;;;;;;13.40;8.30;;;5.60;79.60;;;;;;6283917;22;20003;-89
2023/01/22 08:05:39;;;;;;;11.98;8.57;;;5.70;79.60;;;;;;6279459;22;20000;-88
2023/01/22 08:08:10;;;;;;;10.50;7.22;;;5.70;79.50;;;;;;6282850;22;20051;-87
2023/01/22 08:10:37;;;;;;;9.20;7.07;;;5.80;79.80;;;;;;6279028;22;20010;-88
2023/01/22 08:13:03;;;;;;;10.65;6.75;;;5.80;79.20;;;;;;6278572;22;19996;-88
2023/01/22 08:15:30;;;;;;;11.48;7.35;;;5.80;79.70;;;;;;6278366;22;19998;-88
2023/01/22 08:17:55;;;;;;;10.80;7.15;;;5.90;79.90;;;;;;6277952;22;20000;-87
2023/01/22 08:20:21;;;;;;;10.35;7.55;;;5.90;79.40;;;;;;6277536;22;20069;-88
2023/01/22 08:22:47;;;;;;;10.85;7.03;;;6.00;79.60;;;;;;6280329;22;19996;-88
2023/01/22 08:25:13;;;;;;;9.95;7.05;;;6.00;79.40;;;;;;6280623;22;20018;-89
2023/01/22 08:27:39;;;;;;;10.25;7.00;;;6.10;79.40;;;;;;6278739;22;19996;-88
2023/01/22 08:30:06;;;;;;;10.55;6.53;;;6.10;78.80;;;;;;6281364;22;20003;-88
2023/01/22 08:32:32;;;;;;;10.82;7.28;;;6.10;79.20;;;;;;6252505;22;20003;-87
2023/01/22 08:34:58;;;;;;;11.40;7.43;;;6.20;78.90;;;;;;6278396;22;20010;-85
2023/01/22 08:37:24;;;;;;;13.15;7.18;;;6.20;78.50;;;;;;6275916;22;19996;-80
2023/01/22 08:39:49;;;;;;;10.70;7.30;;;6.20;78.40;;;;;;6215964;23;20430;-83
2023/01/22 08:42:16;;;;;;;11.80;7.78;;;6.30;78.40;;;;;;6245391;23;20004;-80
2023/01/22 08:44:41;;;;;;;10.48;6.90;;;6.30;78.20;;;;;;6244980;23;20008;-79
2023/01/22 08:47:09;;;;;;;12.02;7.40;;;6.30;77.70;;;;;;6248034;22;20008;-81
2023/01/22 08:49:35;;;;;;;10.77;7.15;;;6.30;77.50;;;;;;6275546;22;20007;-81
2023/01/22 08:52:00;;;;;;;11.93;7.03;;;6.30;77.60;;;;;;6275703;22;20010;-80
2023/01/22 08:54:26;;;;;;;12.27;6.95;;;6.40;77.40;;;;;;6275847;22;20041;-80
2023/01/22 08:56:52;;;;;;;10.57;6.88;;;6.40;77.50;;;;;;6275834;22;20000;-79
2023/01/22 08:59:17;;;;;;;11.23;7.50;;;6.40;77.30;;;;;;6276012;22;20007;-81
2023/01/22 09:01:43;;;;;;;11.13;6.57;;;6.40;77.60;;;;;;6275513;22;20007;-81
2023/01/22 09:04:09;;;;;;;9.70;6.10;;;6.40;77.50;;;;;;6275796;22;20000;-79
2023/01/22 09:06:36;;;;;;;11.35;8.38;;;6.40;77.80;;;;;;6275971;22;20003;-78
2023/01/22 09:09:03;;;;;;;10.48;7.30;;;6.40;78.00;;;;;;6276073;22;20421;-82
2023/01/22 09:11:29;;;;;;;11.50;7.38;;;6.50;78.00;;;;;;6275687;22;20014;-72
2023/01/22 09:13:56;;;;;;;10.18;7.40;;;6.50;78.00;;;;;;6275215;22;19996;-72
2023/01/22 09:16:26;;;;;;;11.73;7.40;;;6.50;78.00;;;;;;6274875;22;20064;-72
2023/01/22 09:18:52;;;;;;;12.75;7.82;;;6.60;78.10;;;;;;6247635;22;20003;-70
2023/01/22 09:21:18;;;;;;;12.32;7.13;;;6.60;78.00;;;;;;6275176;22;20010;-73
2023/01/22 09:23:44;;;;;;;11.40;7.88;;;6.60;77.70;;;;;;6247450;22;20008;-74
2023/01/22 09:26:10;;;;;;;10.90;7.00;;;6.60;78.10;;;;;;6275117;22;20008;-73
2023/01/22 09:28:36;;;;;;;9.95;7.07;;;6.50;78.00;;;;;;6275324;22;20012;-74
2023/01/22 09:31:02;;;;;;;10.63;7.03;;;6.50;77.80;;;;;;6279819;22;20064;-74
2023/01/22 09:33:27;;;;;;;10.90;7.80;;;6.50;78.10;;;;;;6277457;22;19995;-71
2023/01/22 09:35:53;;;;;;;8.88;6.57;;;6.50;78.30;;;;;;6277180;22;20060;-74
2023/01/22 09:38:19;;;;;;;10.52;7.20;;;6.50;78.00;;;;;;6275675;22;20353;-75
2023/01/22 09:41:00;;;;;;;10.82;8.02;;;6.50;78.10;;;;;;6274878;22;20132;-74
2023/01/22 09:43:29;;;;;;;11.07;7.50;;;6.50;78.40;;;;;;6274842;22;20432;-75
2023/01/22 09:45:59;;;;;;;11.80;7.22;;;6.60;78.20;;;;;;6274694;22;20431;-71
2023/01/22 09:48:33;;;;;;;11.32;7.60;;;6.60;78.10;;;;;;6274619;22;20513;-70
2023/01/22 09:50:59;;;;;;;10.50;7.80;;;6.70;77.90;;;;;;6275264;22;20384;-73
2023/01/22 09:53:25;;;;;;;9.85;7.13;;;6.80;77.80;;;;;;6275321;22;20000;-72
2023/01/22 09:55:53;;;;;;;12.10;7.20;;;6.90;77.80;;;;;;6274391;22;20003;-73
2023/01/22 09:58:23;;;;;;;11.38;7.13;;;6.90;77.20;;;;;;6275222;22;19996;-73
2023/01/22 10:01:01;;;;;;;12.45;7.90;;;7.00;77.40;;;;;;6276222;22;20014;-71
2023/01/22 10:03:34;;;;;;;11.02;7.28;;;7.00;77.10;;;;;;6276589;22;20057;-72
2023/01/22 10:06:13;;;;;;;11.48;7.55;;;7.00;77.00;;;;;;6276414;22;20133;-74
2023/01/22 10:09:06;;;;;;;10.70;7.60;;;7.00;76.90;;;;;;6276496;22;20000;-73
2023/01/22 10:11:32;;;;;;;10.02;6.43;;;7.10;77.10;;;;;;6276492;22;20000;-74
2023/01/22 10:14:01;;;;;;;10.43;7.60;;;7.10;76.60;;;;;;6276884;22;20006;-73
2023/01/22 10:16:27;;;;;;;13.00;7.53;;;7.10;76.80;;;;;;6276316;22;20008;-73
2023/01/22 10:18:58;;;;;;;12.68;7.82;;;7.10;76.60;;;;;;6276115;22;20007;-71
2023/01/22 10:21:45;;;;;;;11.60;7.57;;;7.20;77.00;;;;;;6275969;22;20010;-72
2023/01/22 10:24:11;;;;;;;12.07;7.95;;;7.20;76.60;;;;;;6275611;22;20277;-72
2023/01/22 10:26:46;;;;;;;11.32;7.43;;;7.20;76.70;;;;;;6276335;22;20101;-69
2023/01/22 10:29:21;;;;;;;14.95;10.00;;;7.20;76.40;;;;;;6275740;22;20003;-76
2023/01/22 10:31:51;;;;;;;12.98;8.55;;;7.30;76.70;;;;;;6275781;22;20030;-78
2023/01/22 10:34:34;;;;;;;11.40;7.60;;;7.40;76.70;;;;;;6276133;22;20004;-74
2023/01/22 12:47:27;;;;;;;6.80;4.20;;;12.30;61.10;;;;;;6146969;23;20032;-79
2023/01/22 12:49:53;;;;;;;7.00;3.85;;;12.30;61.20;;;;;;6155617;23;20009;-81
2023/01/22 12:52:37;;;;;;;7.63;4.20;;;12.20;60.20;;;;;;6155459;23;20016;-79
2023/01/22 12:55:21;;;;;;;;;;;12.00;60.90;;;;;;6156054;23;20002;-71
2023/01/22 12:57:47;;;;;;;5.35;3.38;;;11.90;58.80;;;;;;6153820;23;19924;-76
2023/01/22 13:00:33;;;;;;;8.85;4.50;;;11.70;60.80;;;;;;6154956;23;20420;-82
2023/01/22 13:03:03;;;;;;;7.75;3.90;;;11.60;61.10;;;;;;6155316;23;20002;-80
2023/01/22 13:05:29;;;;;;;6.82;3.88;;;11.50;61.20;;;;;;6154772;23;19998;-76
2023/01/22 13:08:04;;;;;;;7.05;3.38;;;11.30;60.30;;;;;;6154594;23;20016;-78
2023/01/22 13:10:33;;;;;;;6.22;3.67;;;11.20;62.00;;;;;;6153326;23;20029;-80
2023/01/22 13:13:22;;;;;;;5.85;3.40;;;11.10;61.50;;;;;;6154379;23;20117;-78
2023/01/22 13:15:53;;;;;;;6.00;3.78;;;11.10;62.30;;;;;;6154573;23;20001;-75
2023/01/22 13:18:26;;;;;;;5.85;3.40;;;11.10;61.90;;;;;;6155279;23;20511;-75
2023/01/22 13:20:58;;;;;;;7.27;4.03;;;11.10;61.30;;;;;;6154739;23;20009;-75
2023/01/22 13:23:24;;;;;;;6.43;3.63;;;11.20;61.70;;;;;;6154830;23;20036;-74
2023/01/22 13:25:55;;;;;;;6.97;4.15;;;11.30;61.10;;;;;;6153345;23;20410;-75
2023/01/22 13:28:21;;;;;;;6.18;3.90;;;11.40;61.00;;;;;;6154835;23;20063;-72
2023/01/22 13:31:02;;;;;;;8.60;3.67;;;11.50;60.30;;;;;;6154771;23;20008;-76
2023/01/22 13:33:29;;;;;;;6.05;3.65;;;11.60;60.30;;;;;;6154673;23;19997;-77
2023/01/22 13:35:55;;;;;;;6.60;3.30;;;11.60;60.10;;;;;;6154351;23;20367;-78
2023/01/22 13:38:24;;;;;;;9.73;3.75;;;11.50;59.90;;;;;;6154371;23;20029;-76
2023/01/22 13:40:56;;;;;;;7.38;3.45;;;11.50;60.30;;;;;;6154517;23;20021;-76
2023/01/22 13:43:23;;;;;;;4.70;2.70;;;11.50;60.10;;;;;;6152955;23;20093;-73
2023/01/22 13:45:54;;;;;;;5.25;2.92;;;11.40;60.00;;;;;;6192154;23;20083;-75
2023/01/22 13:48:24;;;;;;;5.93;2.90;;;11.30;60.10;;;;;;6184307;23;20004;-75
2023/01/22 13:50:55;;;;;;;4.70;2.58;;;11.30;60.10;;;;;;6183935;23;20194;-74
2023/01/22 13:53:30;;;;;;;6.03;3.60;;;11.20;60.30;;;;;;6184198;23;20005;-79
2023/01/22 13:55:57;;;;;;;8.35;3.63;;;11.20;61.40;;;;;;6184308;23;20005;-76
2023/01/22 13:58:40;;;;;;;10.00;3.70;;;11.20;61.30;;;;;;6184371;23;20009;-77
2023/01/22 14:01:07;;;;;;;8.23;4.50;;;11.20;61.60;;;;;;6183833;23;20071;-72
2023/01/22 14:03:33;;;;;;;7.55;4.93;;;11.20;62.00;;;;;;6183985;23;20006;-73
2023/01/22 14:06:07;;;;;;;9.45;5.38;;;11.20;62.20;;;;;;6184568;23;20005;-74
2023/01/22 14:08:43;;;;;;;;;;;11.20;62.60;;;;;;6185452;23;20009;-77
2023/01/22 14:11:08;;;;;;;11.95;6.80;;;11.10;62.50;;;;;;6184947;23;19900;-74
2023/01/22 14:13:42;;;;;;;10.77;7.03;;;11.10;63.20;;;;;;6187235;23;20012;-74
2023/01/22 14:16:08;;;;;;;10.73;7.03;;;11.10;63.90;;;;;;6189574;23;20720;-74
2023/01/22 14:18:34;;;;;;;10.63;6.70;;;11.10;64.00;;;;;;6190694;23;20093;-74
2023/01/22 14:21:00;;;;;;;10.23;7.00;;;11.00;64.60;;;;;;6189735;23;20013;-74
2023/01/22 14:23:26;;;;;;;11.68;7.13;;;11.00;64.70;;;;;;6204450;23;20006;-71
2023/01/22 14:25:53;;;;;;;12.38;7.43;;;11.00;65.00;;;;;;6215946;23;20009;-72
2023/01/22 14:28:21;;;;;;;9.38;6.72;;;10.90;64.90;;;;;;6183851;23;20004;-71
2023/01/22 14:30:47;;;;;;;9.57;6.93;;;10.90;65.20;;;;;;6183995;23;20005;-72
2023/01/22 14:33:28;;;;;;;11.38;7.95;;;10.90;65.40;;;;;;6182574;23;20005;-73
2023/01/22 14:35:55;;;;;;;8.90;6.68;;;10.80;65.40;;;;;;6184193;23;20060;-72
2023/01/22 14:38:22;;;;;;;9.32;6.40;;;10.80;65.80;;;;;;6184241;23;20087;-80
2023/01/22 14:40:49;;;;;;;9.98;6.20;;;10.70;66.00;;;;;;6184242;23;20032;-72
2023/01/22 14:43:15;;;;;;;10.32;6.55;;;10.70;66.00;;;;;;6183673;23;20450;-76
2023/01/22 14:45:42;;;;;;;10.82;6.53;;;10.70;66.00;;;;;;6185016;23;20024;-76
2023/01/22 14:48:15;;;;;;;9.15;5.97;;;10.70;66.00;;;;;;6186121;23;20056;-75
2023/01/22 14:50:42;;;;;;;9.45;6.10;;;10.70;65.80;;;;;;6186714;23;20008;-79
2023/01/22 14:53:08;;;;;;;9.23;6.15;;;10.70;66.00;;;;;;6186271;23;20008;-75
2023/01/22 14:55:37;;;;;;;14.63;5.90;;;10.70;65.90;;;;;;6186332;23;20008;-73
2023/01/22 14:58:03;;;;;;;10.18;6.43;;;10.70;65.90;;;;;;6185680;23;20004;-75
2023/01/22 15:00:28;;;;;;;11.52;6.57;;;10.70;65.90;;;;;;6185537;23;20009;-74
2023/01/22 15:02:55;;;;;;;8.63;6.05;;;10.80;66.10;;;;;;6186216;23;20454;-76
2023/01/22 15:05:21;;;;;;;11.82;7.18;;;10.80;66.30;;;;;;6185628;23;20139;-75
2023/01/22 15:07:46;;;;;;;10.20;6.90;;;10.70;66.30;;;;;;6185502;23;20032;-75
2023/01/22 15:10:12;;;;;;;11.65;6.82;;;10.70;66.30;;;;;;6186094;23;20072;-74
2023/01/22 15:12:38;;;;;;;10.15;6.55;;;10.60;66.40;;;;;;6185802;23;20005;-74
2023/01/22 15:15:04;;;;;;;9.15;6.43;;;10.60;66.50;;;;;;6184117;23;20435;-76
2023/01/22 15:17:30;;;;;;;9.38;6.68;;;10.60;66.80;;;;;;6185512;23;20316;-75
2023/01/22 15:19:56;;;;;;;10.57;7.35;;;10.50;66.70;;;;;;6185665;23;20088;-75
2023/01/22 15:22:22;;;;;;;11.63;6.90;;;10.50;66.90;;;;;;6185733;23;20008;-75
2023/01/22 15:24:47;;;;;;;13.35;8.07;;;10.40;67.00;;;;;;6185702;23;20442;-73
2023/01/22 15:27:17;;;;;;;15.02;7.80;;;10.40;67.10;;;;;;6185608;23;20008;-75
2023/01/22 15:29:44;;;;;;;10.88;7.60;;;10.30;67.10;;;;;;6209070;23;20096;-74
2023/01/22 15:32:10;;;;;;;11.60;8.10;;;10.30;67.50;;;;;;6185712;23;19997;-75
2023/01/22 15:34:35;;;;;;;11.48;7.93;;;10.20;67.50;;;;;;6193751;23;20099;-74
2023/01/22 15:37:02;;;;;;;14.02;8.73;;;10.20;67.70;;;;;;6192497;23;20029;-74
2023/01/22 15:39:28;;;;;;;14.98;8.45;;;10.10;67.70;;;;;;6188899;23;20065;-73
2023/01/22 15:41:54;;;;;;;12.38;7.22;;;10.10;67.90;;;;;;6185893;23;20009;-74
2023/01/22 15:44:19;;;;;;;10.75;6.95;;;10.00;68.00;;;;;;6185601;23;20007;-75
2023/01/22 15:46:46;;;;;;;10.60;7.65;;;10.00;68.00;;;;;;6184579;23;20021;-73
2023/01/22 15:49:12;;;;;;;10.88;7.07;;;10.00;68.10;;;;;;6185180;23;20005;-75
2023/01/22 15:51:39;;;;;;;9.35;7.40;;;9.90;69.00;;;;;;6185271;23;20055;-75
2023/01/22 15:54:06;;;;;;;9.32;6.70;;;9.90;69.00;;;;;;6183654;23;20284;-75
2023/01/22 15:56:34;;;;;;;12.15;7.32;;;9.90;68.90;;;;;;6182640;23;20443;-74
2023/01/22 15:59:01;;;;;;;9.73;6.78;;;9.90;68.70;;;;;;6184783;23;20007;-74
2023/01/22 16:01:27;;;;;;;11.20;7.57;;;9.90;68.70;;;;;;6185181;23;20005;-74
2023/01/22 16:03:54;;;;;;;11.32;7.88;;;9.90;68.80;;;;;;6185329;23;20001;-75
2023/01/22 16:06:21;;;;;;;15.90;8.50;;;9.90;68.80;;;;;;6185118;23;20450;-75
2023/01/22 16:08:48;;;;;;;14.85;8.00;;;9.90;68.80;;;;;;6183209;23;20062;-74
2023/01/22 16:11:15;;;;;;;11.73;7.68;;;9.80;68.70;;;;;;6185373;23;20001;-74
2023/01/22 16:13:41;;;;;;;12.07;7.95;;;9.80;68.60;;;;;;6185551;23;20427;-73
2023/01/22 16:16:14;;;;;;;12.73;7.82;;;9.80;68.50;;;;;;6185782;23;20001;-75
2023/01/22 16:18:40;;;;;;;10.95;8.05;;;9.80;68.70;;;;;;6184354;23;20399;-74